Portada
METAR-TAF:

METAR-TAF

Aeropuertos :

Rasht, Irán

latitud: 37-12N, longitud: 049-38E, altitud: -7 m

Observación

El informe se hizo hace 27 minutos, a las 04:30 UTC
Viento calma
Temperatura 26°C
Humedad 100%
Presión 1008 hPa
Visibilidad 10 km o más
Nubes dispersas a una altura de 2000 ft, Cumulus congestus.
Cielo nuboso a una altura de 6000 ft

METAR: OIGG 250430Z 00000KT 9999 SCT020TCU BKN060 26/26 Q1008

Hora: 09:27 (04:57 UTC)

Pronóstico

El informe se hizo hace 2 horas y 27 minutos, a las 02:30 UTC
Pronóstico válido del 25 a las 03 UTC al 25 a las 12 UTC
Viento 8 kt del oeste
Visibilidad: 7000 m
Escasas nubes a una altura de 3000 ft
Evolucionando progresivamente
del 25 a las 06 UTC al 25 a las 08 UTC
Visibilidad: 6000 m
Escasas nubes a una altura de 2500 ft
Cielo nuboso a una altura de 8000 ft

TAF: OIGG 250230Z 2503/2512 27008KT 7000 FEW030 BECMG 2506/2508 6000 FEW025 BKN080

Observaciones y pronósticos meteorológicos de más de 4000 aeropuertos (mensajes METAR y TAF).

Los puntos amarillos y rojos representan las estaciones disponibles.

Ponga el ratón en el punto deseado para ver el nombre de la estación.

Haga clic para ver las observaciones y los pronósticos meteorológicos.

Para cambiar el mapa : haga clic en los botones verdes con una cruz de color negro para hacer un zoom, en el botón verde con un guión para alejar o en las flechas verdes para mapas adyacentes.


METAR-TAF: